KNIP/NIP METAR and TAF weather

Enter ICAO airport designator
Station Type Date Time Source
KNIP METAR 2020/12/05 05:53 UTC NOAA

KNIP 050553Z 24008KT 10SM SCT018 BKN025 OVC040 18/17 A3003 RMK AO2 RAB08E32 SLP163 P0001 60002 T01830167 10194 20183 56003


Station Type Date Time Source
KNIP Decoded METAR 2020/12/05 05:53 UTC NOAA

JACKSONVILLE NAVAL AIR STN, FL, United States (KNIP) 30-14N 81-40W 8M
Dec 05, 2020 - 12:53 AM EST / 2020.12.05 0553 UTC
Wind: from the WSW (240 degrees) at 9 MPH (8 KT):0
Visibility: 10 mile(s):0
Sky conditions: overcast
Precipitation last hour: 0.01 inches
Temperature: 64.9 F (18.3 C)
Dew Point: 62.1 F (16.7 C)
Relative Humidity: 90%
Pressure (altimeter): 30.03 in. Hg (1016 hPa)
Pressure tendency: 0.01 inches (0.3 hPa) lower than three hours ago
ob: KNIP 050553Z 24008KT 10SM SCT018 BKN025 OVC040 18/17 A3003 RMK AO2 RAB08E32 SLP163 P0001 60002 T01830167 10194 20183 56003
cycle: 6

Station Type Date Time Source
KNIP TAF 2020/12/04 23:55 UTC NOAA

KNIP TAF 0423/0523 21007KT 9999 VCSH SCT040 BKN080 OVC120 QNH3002INS
TEMPO 0502/0506 VRB12G18KT 4800 SHRA FEW010 BKN025 OVC080
FM051000 29007KT 9999 SCT045 BKN120 BKN250 QNH3004INS
FM051400 33008KT 9999 FEW050 FEW250 QNH3010INS T12/0512Z T18/0520Z FN20019

Example: see airport list